createdAt,value
2022-11-05T00:02:23.508Z,99.89
2022-11-05T00:05:08.217Z,100.00
2022-11-05T00:07:55.115Z,100.00
2022-11-05T00:10:25.329Z,99.92
2022-11-05T00:13:10.823Z,100.00
2022-11-05T00:15:55.899Z,100.00
2022-11-05T00:18:24.532Z,100.00
2022-11-05T00:20:52.111Z,100.00
2022-11-05T00:23:37.077Z,100.00
2022-11-05T00:26:06.691Z,100.00
2022-11-05T00:28:34.852Z,100.00
2022-11-05T00:31:03.298Z,100.00
2022-11-05T00:33:32.470Z,100.00
2022-11-05T00:35:59.791Z,100.00
2022-11-05T00:38:27.123Z,100.00
2022-11-05T00:40:54.448Z,100.00
2022-11-05T00:43:39.123Z,100.00
2022-11-05T00:46:06.666Z,100.00
2022-11-05T00:48:53.183Z,100.00
2022-11-05T00:51:20.608Z,100.00
2022-11-05T00:53:48.024Z,100.00
2022-11-05T00:56:15.383Z,100.00
2022-11-05T00:58:42.775Z,100.00
2022-11-05T01:01:11.246Z,100.00
2022-11-05T01:03:40.850Z,100.00
2022-11-05T01:06:10.274Z,100.00
2022-11-05T01:08:38.055Z,100.00
2022-11-05T01:11:09.916Z,100.00
2022-11-05T01:13:38.969Z,100.00
2022-11-05T01:16:08.126Z,100.00
2022-11-05T01:18:37.835Z,100.00
2022-11-05T01:21:13.062Z,100.00
2022-11-05T01:23:40.450Z,100.00
2022-11-05T01:26:07.780Z,100.00
2022-11-05T01:28:35.283Z,100.00
2022-11-05T01:31:02.669Z,100.00
2022-11-05T01:33:29.983Z,100.00
2022-11-05T01:35:57.363Z,100.00
2022-11-05T01:38:27.040Z,100.00
2022-11-05T01:40:54.380Z,100.00
2022-11-05T01:43:22.982Z,100.00
2022-11-05T01:45:51.328Z,100.00
2022-11-05T01:48:22.422Z,100.00
2022-11-05T01:50:52.521Z,100.00
2022-11-05T01:53:24.163Z,100.00
2022-11-05T01:55:56.991Z,100.00
2022-11-05T01:58:28.596Z,100.00
2022-11-05T02:00:56.432Z,100.00
2022-11-05T02:03:24.155Z,100.00
2022-11-05T02:05:52.173Z,100.00
2022-11-05T02:08:35.213Z,100.00
2022-11-05T02:11:03.943Z,100.00
2022-11-05T02:13:31.398Z,100.00
2022-11-05T02:16:04.334Z,100.00
2022-11-05T02:18:42.175Z,100.00
2022-11-05T02:21:32.601Z,100.00
2022-11-05T02:24:25.967Z,100.00
2022-11-05T02:27:08.903Z,100.00
2022-11-05T02:30:01.489Z,100.00
2022-11-05T02:32:36.739Z,100.00
2022-11-05T02:35:10.348Z,100.00
2022-11-05T02:37:40.771Z,100.00
2022-11-05T02:40:14.088Z,100.00
2022-11-05T02:42:45.631Z,100.00
2022-11-05T02:45:23.603Z,100.00
2022-11-05T02:47:59.885Z,100.00
2022-11-05T02:50:31.951Z,100.00
2022-11-05T02:53:02.827Z,100.00
2022-11-05T02:55:34.533Z,100.00
2022-11-05T02:58:03.448Z,100.00
2022-11-05T03:00:40.845Z,100.00
2022-11-05T03:03:17.090Z,100.00
2022-11-05T03:05:50.670Z,100.00
2022-11-05T03:08:24.063Z,100.00
2022-11-05T03:10:52.843Z,100.00
2022-11-05T03:13:23.823Z,100.00
2022-11-05T03:15:57.215Z,100.00
2022-11-05T03:18:31.480Z,100.00
2022-11-05T03:21:02.103Z,100.00
2022-11-05T03:23:34.116Z,100.00
2022-11-05T03:26:06.831Z,100.00
2022-11-05T03:28:40.693Z,100.00
2022-11-05T03:31:08.884Z,100.00
2022-11-05T03:33:39.527Z,100.00
2022-11-05T03:36:13.816Z,100.00
2022-11-05T03:38:43.421Z,100.00
2022-11-05T03:41:12.751Z,100.00
2022-11-05T03:43:42.883Z,100.00
2022-11-05T03:46:13.150Z,100.00
2022-11-05T03:48:45.453Z,100.00
2022-11-05T03:51:18.848Z,100.00
2022-11-05T03:53:49.215Z,100.00
2022-11-05T03:56:20.267Z,100.00
2022-11-05T03:58:48.372Z,100.00
2022-11-05T04:01:16.066Z,100.00
2022-11-05T04:03:44.726Z,100.00
2022-11-05T04:06:29.419Z,100.00
2022-11-05T04:09:14.492Z,100.00
2022-11-05T04:11:59.763Z,100.00
2022-11-05T04:14:27.183Z,100.00
2022-11-05T04:17:09.931Z,100.00
2022-11-05T04:19:57.290Z,100.00
2022-11-05T04:22:43.735Z,100.00
2022-11-05T04:25:11.211Z,100.00
2022-11-05T04:27:38.559Z,100.00
2022-11-05T04:30:18.599Z,100.00
2022-11-05T04:32:59.669Z,100.00
2022-11-05T04:35:29.420Z,100.00
2022-11-05T04:37:56.858Z,100.00
2022-11-05T04:40:24.500Z,100.00
2022-11-05T04:42:51.932Z,100.00
2022-11-05T04:45:19.260Z,100.00
2022-11-05T04:47:46.559Z,100.00
2022-11-05T04:50:13.880Z,100.00
2022-11-05T04:52:42.821Z,100.00
2022-11-05T04:55:10.224Z,100.00
2022-11-05T04:57:37.606Z,100.00
2022-11-05T05:00:06.173Z,100.00
2022-11-05T05:02:33.629Z,100.00
2022-11-05T05:05:00.947Z,100.00
2022-11-05T05:07:28.407Z,100.00
2022-11-05T05:09:57.069Z,100.00
2022-11-05T05:12:24.494Z,100.00
2022-11-05T05:14:51.847Z,100.00
2022-11-05T05:17:19.236Z,100.00
2022-11-05T05:20:04.228Z,100.00
2022-11-05T05:22:31.591Z,100.00
2022-11-05T05:25:00.691Z,100.00
2022-11-05T05:27:30.086Z,100.00
2022-11-05T05:29:57.586Z,100.00
2022-11-05T05:32:25.663Z,100.00
2022-11-05T05:34:53.426Z,100.00
2022-11-05T05:37:21.011Z,100.00
2022-11-05T05:39:48.663Z,100.00
2022-11-05T05:42:17.380Z,100.00
2022-11-05T05:44:44.803Z,100.00
2022-11-05T05:47:12.148Z,100.00
2022-11-05T05:49:39.483Z,100.00
2022-11-05T05:52:06.824Z,100.00
2022-11-05T05:54:38.293Z,100.00
2022-11-05T05:57:08.736Z,100.00
2022-11-05T05:59:37.415Z,100.00
2022-11-05T06:02:04.903Z,100.00
2022-11-05T06:04:32.313Z,100.00
2022-11-05T06:06:59.719Z,100.00
2022-11-05T06:09:27.055Z,100.00
2022-11-05T06:11:54.391Z,100.00
2022-11-05T06:14:22.028Z,100.00
2022-11-05T06:16:50.723Z,100.00
2022-11-05T06:19:18.248Z,100.00
2022-11-05T06:21:45.598Z,100.00
2022-11-05T06:24:12.919Z,100.00
2022-11-05T06:26:43.090Z,100.00
2022-11-05T06:29:10.902Z,100.00
2022-11-05T06:31:38.326Z,100.00
2022-11-05T06:34:06.965Z,100.00
2022-11-05T06:36:34.440Z,100.00
2022-11-05T06:39:01.848Z,100.00
2022-11-05T06:41:29.183Z,100.00
2022-11-05T06:43:56.557Z,100.00
2022-11-05T06:46:23.936Z,100.00
2022-11-05T06:48:51.795Z,100.00
2022-11-05T06:51:20.468Z,100.00
2022-11-05T06:53:47.831Z,100.00
2022-11-05T06:56:15.180Z,100.00
2022-11-05T06:58:42.500Z,100.00
2022-11-05T07:01:11.045Z,100.00
2022-11-05T07:03:39.176Z,100.00
2022-11-05T07:06:07.502Z,100.00
2022-11-05T07:08:37.544Z,100.00
2022-11-05T07:11:05.231Z,100.00
2022-11-05T07:13:32.732Z,100.00
2022-11-05T07:16:00.127Z,100.00
2022-11-05T07:18:27.516Z,100.00
2022-11-05T07:20:54.876Z,100.00
2022-11-05T07:23:22.242Z,100.00
2022-11-05T07:25:50.927Z,100.00
2022-11-05T07:28:18.351Z,100.00
2022-11-05T07:30:45.668Z,100.00
2022-11-05T07:33:13.401Z,100.00
2022-11-05T07:35:41.139Z,100.00
2022-11-05T07:38:09.263Z,100.00
2022-11-05T07:40:36.630Z,100.00
2022-11-05T07:43:05.304Z,100.00
2022-11-05T07:45:32.967Z,100.00
2022-11-05T07:48:01.654Z,100.00
2022-11-05T07:50:30.505Z,100.00
2022-11-05T07:53:00.923Z,100.00
2022-11-05T07:55:28.275Z,100.00
2022-11-05T07:57:55.610Z,100.00
2022-11-05T08:00:25.581Z,100.00
2022-11-05T08:03:06.781Z,100.00
2022-11-05T08:05:37.637Z,100.00
2022-11-05T08:08:05.895Z,100.00
2022-11-05T08:10:33.919Z,100.00
2022-11-05T08:13:01.489Z,100.00
2022-11-05T08:15:30.200Z,100.00
2022-11-05T08:18:00.629Z,100.00
2022-11-05T08:20:28.042Z,100.00
2022-11-05T08:22:55.524Z,100.00
2022-11-05T08:25:22.875Z,100.00
2022-11-05T08:27:56.192Z,100.00
2022-11-05T08:30:23.626Z,100.00
2022-11-05T08:32:52.651Z,100.00
2022-11-05T08:35:20.262Z,100.00
2022-11-05T08:37:47.719Z,100.00
2022-11-05T08:40:15.400Z,100.00
2022-11-05T08:42:42.774Z,100.00
2022-11-05T08:45:10.806Z,100.00
2022-11-05T08:47:38.159Z,100.00
2022-11-05T08:50:07.844Z,100.00
2022-11-05T08:52:35.173Z,100.00
2022-11-05T08:55:02.494Z,100.00
2022-11-05T08:57:29.819Z,100.00
2022-11-05T08:59:57.175Z,100.00
2022-11-05T09:02:24.675Z,100.00
2022-11-05T09:04:52.099Z,100.00
2022-11-05T09:07:22.748Z,100.00
2022-11-05T09:09:50.104Z,100.00
2022-11-05T09:12:17.789Z,100.00
2022-11-05T09:14:45.120Z,100.00
2022-11-05T09:17:18.127Z,100.00
2022-11-05T09:19:45.463Z,100.00
2022-11-05T09:22:13.255Z,100.00
2022-11-05T09:24:42.909Z,100.00
2022-11-05T09:27:11.782Z,100.00
2022-11-05T09:29:39.144Z,100.00
2022-11-05T09:32:06.837Z,100.00
2022-11-05T09:34:34.436Z,100.00
2022-11-05T09:37:01.905Z,100.00
2022-11-05T09:39:29.323Z,100.00
2022-11-05T09:42:02.946Z,100.00
2022-11-05T09:44:37.003Z,100.00
2022-11-05T09:47:08.007Z,100.00
2022-11-05T09:49:39.854Z,100.00
2022-11-05T09:52:11.331Z,100.00
2022-11-05T09:54:38.854Z,100.00
2022-11-05T09:57:12.305Z,100.00
2022-11-05T09:59:43.502Z,99.86
2022-11-05T10:02:16.738Z,99.67
2022-11-05T10:04:46.047Z,99.74
2022-11-05T10:07:16.214Z,99.36
2022-11-05T10:09:47.691Z,98.29
2022-11-05T10:12:19.728Z,99.51
2022-11-05T10:14:50.943Z,99.34
2022-11-05T10:17:24.088Z,97.55
2022-11-05T10:19:54.126Z,96.43
2022-11-05T10:22:21.524Z,96.47
2022-11-05T10:24:50.206Z,96.29
2022-11-05T10:27:20.992Z,93.68
2022-11-05T10:29:49.130Z,94.01
2022-11-05T10:32:23.811Z,93.66
2022-11-05T10:34:51.370Z,91.73
2022-11-05T10:37:19.300Z,92.74
2022-11-05T10:39:46.720Z,91.90
2022-11-05T10:42:31.219Z,92.72
2022-11-05T10:45:02.940Z,93.05
2022-11-05T10:47:39.239Z,91.61
2022-11-05T10:50:11.807Z,91.15
2022-11-05T10:52:41.040Z,92.79
2022-11-05T10:55:16.570Z,93.61
2022-11-05T10:57:45.293Z,94.88
2022-11-05T11:00:28.179Z,93.61
2022-11-05T11:02:57.969Z,88.11
2022-11-05T11:05:28.729Z,90.27
2022-11-05T11:08:22.685Z,92.11
2022-11-05T11:10:52.344Z,92.97
2022-11-05T11:13:24.259Z,92.79
2022-11-05T11:15:52.079Z,91.77
2022-11-05T11:18:30.898Z,93.18
2022-11-05T11:21:07.617Z,93.19
2022-11-05T11:23:38.800Z,92.47
2022-11-05T11:26:06.742Z,92.00
2022-11-05T11:28:37.136Z,91.88
2022-11-05T11:31:06.959Z,92.83
2022-11-05T11:33:35.020Z,92.71
2022-11-05T11:36:02.395Z,92.64
2022-11-05T11:38:30.864Z,93.15
2022-11-05T11:41:19.811Z,93.55
2022-11-05T11:43:48.519Z,93.68
2022-11-05T11:46:17.823Z,93.12
2022-11-05T11:48:47.380Z,92.49
2022-11-05T11:51:20.570Z,91.59
2022-11-05T11:53:49.358Z,93.38
2022-11-05T11:56:18.895Z,92.74
2022-11-05T11:58:49.291Z,91.85
2022-11-05T12:01:47.467Z,91.93
2022-11-05T12:04:22.891Z,91.60
2022-11-05T12:06:56.558Z,91.05
2022-11-05T12:09:29.664Z,91.80
2022-11-05T12:12:01.475Z,91.18
2022-11-05T12:14:34.318Z,90.29
2022-11-05T12:17:19.553Z,89.13
2022-11-05T12:20:00.287Z,89.58
2022-11-05T12:22:34.466Z,89.50
2022-11-05T12:25:18.563Z,84.84
2022-11-05T12:28:04.441Z,85.41
2022-11-05T12:30:38.251Z,84.50
2022-11-05T12:33:17.648Z,83.29
2022-11-05T12:36:03.359Z,83.68
2022-11-05T12:38:45.400Z,82.95
2022-11-05T12:41:16.945Z,83.33
2022-11-05T12:43:54.059Z,82.61
2022-11-05T12:46:27.615Z,83.12
2022-11-05T12:49:09.534Z,81.38
2022-11-05T12:51:49.123Z,81.90
2022-11-05T12:54:24.236Z,79.67
2022-11-05T12:56:54.398Z,81.20
2022-11-05T12:59:26.318Z,79.25
2022-11-05T13:02:01.559Z,80.45
2022-11-05T13:04:34.743Z,82.10
2022-11-05T13:07:04.783Z,83.43
2022-11-05T13:09:36.378Z,82.60
2022-11-05T13:12:06.121Z,84.09
2022-11-05T13:14:37.063Z,83.83
2022-11-05T13:17:09.945Z,83.20
2022-11-05T13:19:40.597Z,83.82
2022-11-05T13:22:14.302Z,84.36
2022-11-05T13:24:48.238Z,83.82
2022-11-05T13:27:40.213Z,83.67
2022-11-05T13:30:10.451Z,82.94
2022-11-05T13:32:41.975Z,84.62
2022-11-05T13:35:17.280Z,83.12
2022-11-05T13:38:03.851Z,82.70
2022-11-05T13:40:40.483Z,82.43
2022-11-05T13:43:30.800Z,82.92
2022-11-05T13:46:41.684Z,82.04
2022-11-05T13:49:22.087Z,83.16
2022-11-05T13:51:53.021Z,81.98
2022-11-05T13:54:37.632Z,81.22
2022-11-05T13:57:16.559Z,81.50
2022-11-05T13:59:52.243Z,80.18
2022-11-05T14:02:22.497Z,79.83
2022-11-05T14:04:58.012Z,80.43
2022-11-05T14:07:30.171Z,81.18
2022-11-05T14:09:59.774Z,81.17
2022-11-05T14:12:30.849Z,81.14
2022-11-05T14:15:02.758Z,82.18
2022-11-05T14:17:34.657Z,81.92
2022-11-05T14:20:25.927Z,80.54
2022-11-05T14:22:53.785Z,81.64
2022-11-05T14:25:54.840Z,81.31
2022-11-05T14:28:31.052Z,81.31
2022-11-05T14:30:58.379Z,81.77
2022-11-05T14:33:33.664Z,81.83
2022-11-05T14:36:31.432Z,81.03
2022-11-05T14:39:04.630Z,81.41
2022-11-05T14:41:32.064Z,81.26
2022-11-05T14:44:01.098Z,83.63
2022-11-05T14:46:41.039Z,80.70
2022-11-05T14:49:17.191Z,82.48
2022-11-05T14:51:48.191Z,82.33
2022-11-05T14:54:20.876Z,82.55
2022-11-05T14:56:55.859Z,82.48
2022-11-05T14:59:35.990Z,82.30
2022-11-05T15:02:04.537Z,81.39
2022-11-05T15:04:33.159Z,82.99
2022-11-05T15:07:35.284Z,80.20
2022-11-05T15:10:10.632Z,81.31
2022-11-05T15:12:42.451Z,81.09
2022-11-05T15:15:22.451Z,80.39
2022-11-05T15:18:00.497Z,82.12
2022-11-05T15:20:37.294Z,81.78
2022-11-05T15:23:13.732Z,81.74
2022-11-05T15:25:51.871Z,82.18
2022-11-05T15:28:26.581Z,83.29
2022-11-05T15:30:59.271Z,82.40
2022-11-05T15:33:27.258Z,82.10
2022-11-05T15:35:54.901Z,82.78
2022-11-05T15:38:31.683Z,82.56
2022-11-05T15:41:01.162Z,83.34
2022-11-05T15:43:28.790Z,82.73
2022-11-05T15:46:07.979Z,83.77
2022-11-05T15:48:35.687Z,83.26
2022-11-05T15:51:03.228Z,82.58
2022-11-05T15:53:56.074Z,84.06
2022-11-05T15:56:25.552Z,84.03
2022-11-05T15:58:55.253Z,83.11
2022-11-05T16:01:24.775Z,83.58
2022-11-05T16:03:52.889Z,84.19
2022-11-05T16:06:20.268Z,84.01
2022-11-05T16:08:50.323Z,83.63
2022-11-05T16:11:25.165Z,83.63
2022-11-05T16:13:53.237Z,83.94
2022-11-05T16:16:31.291Z,84.14
2022-11-05T16:18:58.657Z,83.86
2022-11-05T16:21:26.071Z,83.23
2022-11-05T16:23:57.120Z,82.86
2022-11-05T16:26:55.961Z,82.90
2022-11-05T16:29:19.411Z,83.45
2022-11-05T16:31:49.982Z,83.32
2022-11-05T16:34:26.580Z,84.05
2022-11-05T16:36:55.669Z,82.77
2022-11-05T16:39:24.443Z,83.76
2022-11-05T16:41:52.044Z,84.45
2022-11-05T16:44:19.442Z,84.11
2022-11-05T16:46:49.019Z,83.27
2022-11-05T16:49:16.639Z,83.25
2022-11-05T16:51:44.593Z,82.57
2022-11-05T16:54:11.924Z,83.49
2022-11-05T16:56:42.188Z,84.31
2022-11-05T16:59:12.542Z,83.76
2022-11-05T17:01:41.075Z,84.57
2022-11-05T17:04:09.569Z,84.16
2022-11-05T17:06:36.930Z,84.54
2022-11-05T17:09:04.483Z,84.43
2022-11-05T17:11:31.878Z,85.12
2022-11-05T17:14:00.566Z,85.86
2022-11-05T17:16:28.048Z,84.77
2022-11-05T17:18:55.368Z,84.71
2022-11-05T17:21:22.687Z,84.65
2022-11-05T17:23:50.087Z,84.28
2022-11-05T17:26:17.447Z,84.28
2022-11-05T17:28:44.804Z,83.45
2022-11-05T17:31:14.223Z,83.94
2022-11-05T17:33:41.711Z,83.91
2022-11-05T17:36:10.983Z,83.78
2022-11-05T17:38:38.611Z,85.00
2022-11-05T17:41:11.748Z,82.95
2022-11-05T17:43:39.200Z,83.63
2022-11-05T17:46:08.103Z,83.35
2022-11-05T17:48:36.959Z,82.67
2022-11-05T17:51:04.833Z,82.78
2022-11-05T17:53:32.195Z,82.42
2022-11-05T17:55:59.558Z,82.71
2022-11-05T17:58:26.908Z,83.66
2022-11-05T18:00:54.255Z,82.95
2022-11-05T18:03:21.582Z,83.39
2022-11-05T18:05:50.220Z,83.53
2022-11-05T18:08:17.631Z,83.54
2022-11-05T18:10:45.032Z,83.39
2022-11-05T18:13:12.946Z,83.79
2022-11-05T18:15:40.993Z,83.87
2022-11-05T18:18:09.040Z,83.57
2022-11-05T18:20:36.581Z,82.66
2022-11-05T18:23:05.591Z,83.57
2022-11-05T18:25:33.070Z,83.82
2022-11-05T18:28:01.627Z,83.41
2022-11-05T18:30:29.021Z,83.91
2022-11-05T18:32:56.379Z,84.13
2022-11-05T18:35:23.683Z,84.42
2022-11-05T18:37:51.056Z,83.94
2022-11-05T18:40:19.781Z,83.86
2022-11-05T18:42:47.129Z,84.94
2022-11-05T18:45:14.495Z,84.06
2022-11-05T18:47:41.861Z,85.27
2022-11-05T18:50:10.316Z,84.35
2022-11-05T18:52:37.842Z,84.43
2022-11-05T18:55:06.033Z,84.81
2022-11-05T18:57:35.226Z,84.83
2022-11-05T19:00:02.573Z,85.06
2022-11-05T19:02:30.062Z,85.87
2022-11-05T19:07:44.851Z,85.96
2022-11-05T19:10:12.204Z,85.21
2022-11-05T19:12:40.949Z,86.34
2022-11-05T19:15:09.491Z,85.43
2022-11-05T19:17:37.059Z,85.47
2022-11-05T19:20:06.066Z,84.86
2022-11-05T19:22:33.713Z,85.42
2022-11-05T19:25:01.278Z,86.18
2022-11-05T19:27:28.645Z,84.86
2022-11-05T19:29:57.395Z,85.67
2022-11-05T19:32:24.742Z,86.07
2022-11-05T19:34:52.098Z,86.28
2022-11-05T19:37:19.863Z,86.42
2022-11-05T19:39:47.207Z,87.04
2022-11-05T19:42:14.598Z,86.17
2022-11-05T19:44:43.040Z,86.54
2022-11-05T19:47:11.791Z,85.94
2022-11-05T19:49:39.129Z,85.72
2022-11-05T19:52:07.065Z,86.00
2022-11-05T19:54:36.055Z,86.09
2022-11-05T19:57:03.399Z,86.74
2022-11-05T19:59:30.812Z,86.48
2022-11-05T20:01:58.547Z,86.78
2022-11-05T20:04:27.323Z,87.14
2022-11-05T20:06:54.644Z,86.50
2022-11-05T20:09:23.083Z,86.28
2022-11-05T20:11:53.083Z,86.43
2022-11-05T20:14:20.923Z,87.37
2022-11-05T20:16:48.288Z,87.17
2022-11-05T20:19:17.320Z,87.58
2022-11-05T20:21:46.093Z,87.81
2022-11-05T20:24:18.838Z,88.08
2022-11-05T20:26:50.969Z,87.78
2022-11-05T20:29:18.361Z,87.21
2022-11-05T20:31:45.845Z,87.25
2022-11-05T20:34:13.270Z,87.64
2022-11-05T20:36:41.215Z,87.63
2022-11-05T20:39:11.824Z,88.04
2022-11-05T20:41:39.220Z,88.59
2022-11-05T20:44:06.684Z,87.95
2022-11-05T20:46:34.855Z,87.77
2022-11-05T20:49:02.191Z,86.99
2022-11-05T20:51:29.714Z,87.36
2022-11-05T20:53:57.893Z,88.02
2022-11-05T20:56:28.023Z,88.47
2022-11-05T20:58:57.752Z,88.54
2022-11-05T21:01:25.458Z,88.07
2022-11-05T21:03:52.947Z,88.56
2022-11-05T21:06:20.347Z,88.18
2022-11-05T21:08:48.268Z,88.64
2022-11-05T21:11:15.668Z,89.06
2022-11-05T21:13:44.350Z,88.35
2022-11-05T21:16:17.689Z,88.40
2022-11-05T21:18:45.519Z,88.31
2022-11-05T21:21:15.821Z,88.10
2022-11-05T21:23:43.248Z,89.17
2022-11-05T21:26:12.874Z,88.92
2022-11-05T21:28:41.052Z,89.26
2022-11-05T21:31:10.146Z,89.20
2022-11-05T21:33:37.697Z,88.78
2022-11-05T21:36:09.374Z,88.60
2022-11-05T21:38:36.715Z,88.30
2022-11-05T21:41:04.678Z,88.13
2022-11-05T21:43:32.202Z,88.80
2022-11-05T21:46:01.610Z,89.10
2022-11-05T21:48:30.657Z,89.32
2022-11-05T21:51:15.602Z,89.80
2022-11-05T21:54:00.483Z,89.97
2022-11-05T21:56:45.816Z,89.55
2022-11-05T21:59:32.806Z,88.74
2022-11-05T22:02:02.386Z,89.45
2022-11-05T22:04:32.603Z,89.22
2022-11-05T22:07:00.331Z,89.27
2022-11-05T22:09:28.460Z,89.96
2022-11-05T22:11:56.460Z,89.63
2022-11-05T22:14:24.280Z,90.01
2022-11-05T22:16:51.701Z,89.65
2022-11-05T22:19:19.154Z,89.52
2022-11-05T22:21:48.335Z,89.69
2022-11-05T22:24:15.908Z,89.93
2022-11-05T22:26:43.987Z,90.12
2022-11-05T22:29:12.139Z,90.42
2022-11-05T22:31:39.491Z,90.19
2022-11-05T22:34:07.247Z,89.23
2022-11-05T22:36:35.332Z,89.43
2022-11-05T22:39:05.004Z,89.59
2022-11-05T22:41:32.464Z,89.44
2022-11-05T22:43:59.822Z,89.25
2022-11-05T22:46:27.961Z,89.09
2022-11-05T22:48:56.085Z,88.81
2022-11-05T22:51:24.802Z,89.39
2022-11-05T22:53:52.165Z,89.51
2022-11-05T22:56:22.276Z,89.06
2022-11-05T22:58:50.151Z,89.59
2022-11-05T23:01:18.751Z,89.61
2022-11-05T23:03:47.368Z,88.98
2022-11-05T23:06:30.475Z,90.00
2022-11-05T23:09:16.099Z,89.31
2022-11-05T23:11:47.222Z,88.83
2022-11-05T23:14:15.092Z,88.34
2022-11-05T23:17:00.789Z,88.76
2022-11-05T23:19:46.559Z,87.82
2022-11-05T23:22:32.815Z,89.01
2022-11-05T23:25:00.594Z,88.80
2022-11-05T23:27:31.306Z,88.74
2022-11-05T23:29:59.736Z,89.06
2022-11-05T23:32:28.005Z,88.80
2022-11-05T23:34:57.286Z,88.79
2022-11-05T23:37:43.790Z,88.80
2022-11-05T23:40:14.733Z,89.37
2022-11-05T23:43:09.692Z,89.34
2022-11-05T23:45:56.358Z,89.38
2022-11-05T23:48:27.895Z,89.82
2022-11-05T23:50:59.575Z,88.62
2022-11-05T23:53:27.471Z,89.17
2022-11-05T23:55:59.705Z,88.42
2022-11-05T23:58:28.523Z,87.83
